sensor_id;sensor_type;location;lat;lon;timestamp;pressure;altitude;pressure_sealevel;temperature;humidity
35507;BME280;36461;52.018;21.036;2023-02-28T00:01:29;101777.80;;;-3.55;64.00
35507;BME280;36461;52.018;21.036;2023-02-28T00:03:58;101783.57;;;-3.59;63.72
35507;BME280;36461;52.018;21.036;2023-02-28T00:06:26;101786.06;;;-3.63;64.00
35507;BME280;36461;52.018;21.036;2023-02-28T00:08:54;101788.21;;;-3.67;64.02
35507;BME280;36461;52.018;21.036;2023-02-28T00:11:22;101791.26;;;-3.71;64.04
35507;BME280;36461;52.018;21.036;2023-02-28T00:13:50;101790.73;;;-3.75;64.38
35507;BME280;36461;52.018;21.036;2023-02-28T00:16:22;101795.80;;;-3.78;64.60
35507;BME280;36461;52.018;21.036;2023-02-28T00:18:50;101795.61;;;-3.82;64.55
35507;BME280;36461;52.018;21.036;2023-02-28T00:21:19;101800.86;;;-3.86;64.81
35507;BME280;36461;52.018;21.036;2023-02-28T00:23:48;101800.01;;;-3.89;64.75
35507;BME280;36461;52.018;21.036;2023-02-28T00:26:16;101803.44;;;-3.92;65.04
35507;BME280;36461;52.018;21.036;2023-02-28T00:28:48;101799.15;;;-3.96;65.22
35507;BME280;36461;52.018;21.036;2023-02-28T00:31:16;101800.09;;;-4.01;65.56
35507;BME280;36461;52.018;21.036;2023-02-28T00:33:44;101799.40;;;-4.05;65.81
35507;BME280;36461;52.018;21.036;2023-02-28T00:36:14;101801.23;;;-4.09;65.83
35507;BME280;36461;52.018;21.036;2023-02-28T00:38:42;101800.35;;;-4.13;66.05
35507;BME280;36461;52.018;21.036;2023-02-28T00:41:11;101800.13;;;-4.17;66.34
35507;BME280;36461;52.018;21.036;2023-02-28T00:43:39;101807.90;;;-4.21;66.07
35507;BME280;36461;52.018;21.036;2023-02-28T00:46:08;101804.81;;;-4.25;66.49
35507;BME280;36461;52.018;21.036;2023-02-28T00:48:36;101804.69;;;-4.28;66.65
35507;BME280;36461;52.018;21.036;2023-02-28T00:51:05;101802.02;;;-4.31;67.04
35507;BME280;36461;52.018;21.036;2023-02-28T00:53:33;101800.33;;;-4.34;66.81
35507;BME280;36461;52.018;21.036;2023-02-28T00:56:02;101802.30;;;-4.38;67.13
35507;BME280;36461;52.018;21.036;2023-02-28T00:58:31;101807.63;;;-4.43;67.06
35507;BME280;36461;52.018;21.036;2023-02-28T01:01:00;101801.99;;;-4.47;67.08
35507;BME280;36461;52.018;21.036;2023-02-28T01:03:28;101800.98;;;-4.50;67.43
35507;BME280;36461;52.018;21.036;2023-02-28T01:05:56;101802.52;;;-4.54;67.73
35507;BME280;36461;52.018;21.036;2023-02-28T01:08:25;101803.02;;;-4.57;67.61
35507;BME280;36461;52.018;21.036;2023-02-28T01:10:54;101798.94;;;-4.61;67.92
35507;BME280;36461;52.018;21.036;2023-02-28T01:13:23;101801.25;;;-4.65;67.71
35507;BME280;36461;52.018;21.036;2023-02-28T01:15:55;101800.21;;;-4.68;68.39
35507;BME280;36461;52.018;21.036;2023-02-28T01:18:24;101801.47;;;-4.70;68.45
35507;BME280;36461;52.018;21.036;2023-02-28T01:20:53;101802.56;;;-4.72;68.40
35507;BME280;36461;52.018;21.036;2023-02-28T01:23:23;101804.78;;;-4.72;68.53
35507;BME280;36461;52.018;21.036;2023-02-28T01:25:52;101802.31;;;-4.70;68.57
35507;BME280;36461;52.018;21.036;2023-02-28T01:28:20;101800.20;;;-4.72;68.75
35507;BME280;36461;52.018;21.036;2023-02-28T01:30:50;101800.17;;;-4.72;68.80
35507;BME280;36461;52.018;21.036;2023-02-28T01:33:19;101803.45;;;-4.74;68.61
35507;BME280;36461;52.018;21.036;2023-02-28T01:35:47;101801.99;;;-4.77;69.05
35507;BME280;36461;52.018;21.036;2023-02-28T01:38:16;101800.91;;;-4.78;68.89
35507;BME280;36461;52.018;21.036;2023-02-28T01:40:50;101799.73;;;-4.81;69.03
35507;BME280;36461;52.018;21.036;2023-02-28T01:43:30;101801.48;;;-4.83;69.03
35507;BME280;36461;52.018;21.036;2023-02-28T01:45:59;101803.87;;;-4.86;69.29
35507;BME280;36461;52.018;21.036;2023-02-28T01:48:32;101804.65;;;-4.90;69.43
35507;BME280;36461;52.018;21.036;2023-02-28T01:51:06;101804.13;;;-4.94;69.72
35507;BME280;36461;52.018;21.036;2023-02-28T01:53:44;101809.49;;;-4.97;69.77
35507;BME280;36461;52.018;21.036;2023-02-28T01:56:16;101808.12;;;-5.01;69.97
35507;BME280;36461;52.018;21.036;2023-02-28T01:58:53;101810.98;;;-5.04;70.05
35507;BME280;36461;52.018;21.036;2023-02-28T02:01:24;101807.52;;;-5.09;69.96
35507;BME280;36461;52.018;21.036;2023-02-28T02:03:59;101806.95;;;-5.13;69.98
35507;BME280;36461;52.018;21.036;2023-02-28T02:06:37;101802.73;;;-5.16;70.22
35507;BME280;36461;52.018;21.036;2023-02-28T02:09:07;101805.91;;;-5.20;70.27
35507;BME280;36461;52.018;21.036;2023-02-28T02:11:36;101801.95;;;-5.25;70.60
35507;BME280;36461;52.018;21.036;2023-02-28T02:14:33;101801.52;;;-5.29;70.47
35507;BME280;36461;52.018;21.036;2023-02-28T02:25:57;101797.42;;;-5.45;71.01
35507;BME280;36461;52.018;21.036;2023-02-28T02:31:32;101800.65;;;-5.51;71.30
35507;BME280;36461;52.018;21.036;2023-02-28T02:36:59;101801.21;;;-5.56;71.46
35507;BME280;36461;52.018;21.036;2023-02-28T02:42:20;101802.30;;;-5.55;71.73
35507;BME280;36461;52.018;21.036;2023-02-28T02:44:55;101806.90;;;-5.54;71.66
35507;BME280;36461;52.018;21.036;2023-02-28T02:47:26;101804.15;;;-5.55;71.90
35507;BME280;36461;52.018;21.036;2023-02-28T02:49:58;101807.14;;;-5.56;71.58
35507;BME280;36461;52.018;21.036;2023-02-28T02:52:36;101806.42;;;-5.57;71.93
35507;BME280;36461;52.018;21.036;2023-02-28T02:55:08;101812.02;;;-5.57;72.03
35507;BME280;36461;52.018;21.036;2023-02-28T02:57:46;101813.56;;;-5.56;71.89
35507;BME280;36461;52.018;21.036;2023-02-28T03:00:17;101815.63;;;-5.55;72.08
35507;BME280;36461;52.018;21.036;2023-02-28T03:02:49;101817.00;;;-5.58;72.31
35507;BME280;36461;52.018;21.036;2023-02-28T03:05:28;101814.48;;;-5.60;72.20
35507;BME280;36461;52.018;21.036;2023-02-28T03:07:58;101814.99;;;-5.60;72.08
35507;BME280;36461;52.018;21.036;2023-02-28T03:10:38;101818.41;;;-5.62;72.24
35507;BME280;36461;52.018;21.036;2023-02-28T03:15:57;101818.73;;;-5.68;72.26
35507;BME280;36461;52.018;21.036;2023-02-28T03:18:48;101822.69;;;-5.70;72.41
35507;BME280;36461;52.018;21.036;2023-02-28T03:21:43;101825.19;;;-5.74;72.54
35507;BME280;36461;52.018;21.036;2023-02-28T03:24:18;101825.20;;;-5.79;72.59
35507;BME280;36461;52.018;21.036;2023-02-28T03:26:54;101824.35;;;-5.82;72.48
35507;BME280;36461;52.018;21.036;2023-02-28T03:29:30;101825.50;;;-5.83;72.62
35507;BME280;36461;52.018;21.036;2023-02-28T03:32:27;101825.60;;;-5.84;72.88
35507;BME280;36461;52.018;21.036;2023-02-28T03:35:01;101826.27;;;-5.87;72.76
35507;BME280;36461;52.018;21.036;2023-02-28T03:37:35;101826.52;;;-5.89;72.75
35507;BME280;36461;52.018;21.036;2023-02-28T03:40:09;101830.61;;;-5.91;73.05
35507;BME280;36461;52.018;21.036;2023-02-28T03:42:43;101832.93;;;-5.92;73.19
35507;BME280;36461;52.018;21.036;2023-02-28T03:45:16;101834.78;;;-5.92;73.00
35507;BME280;36461;52.018;21.036;2023-02-28T03:50:48;101835.75;;;-5.96;73.36
35507;BME280;36461;52.018;21.036;2023-02-28T03:53:37;101834.61;;;-5.98;73.52
35507;BME280;36461;52.018;21.036;2023-02-28T03:56:13;101834.63;;;-5.97;73.74
35507;BME280;36461;52.018;21.036;2023-02-28T04:01:30;101837.23;;;-5.96;73.61
35507;BME280;36461;52.018;21.036;2023-02-28T04:04:02;101842.11;;;-5.96;73.67
35507;BME280;36461;52.018;21.036;2023-02-28T04:06:32;101841.45;;;-5.96;73.64
35507;BME280;36461;52.018;21.036;2023-02-28T04:09:02;101842.84;;;-5.95;73.86
35507;BME280;36461;52.018;21.036;2023-02-28T04:11:40;101840.81;;;-5.95;73.86
35507;BME280;36461;52.018;21.036;2023-02-28T04:14:10;101842.50;;;-5.95;73.97
35507;BME280;36461;52.018;21.036;2023-02-28T04:16:40;101840.34;;;-5.95;73.77
35507;BME280;36461;52.018;21.036;2023-02-28T04:19:11;101840.56;;;-5.94;74.01
35507;BME280;36461;52.018;21.036;2023-02-28T04:21:45;101839.17;;;-5.95;74.08
35507;BME280;36461;52.018;21.036;2023-02-28T04:24:16;101839.73;;;-5.94;74.20
35507;BME280;36461;52.018;21.036;2023-02-28T04:26:47;101841.63;;;-5.93;73.93
35507;BME280;36461;52.018;21.036;2023-02-28T04:29:28;101841.45;;;-5.93;74.02
35507;BME280;36461;52.018;21.036;2023-02-28T04:31:56;101840.73;;;-5.94;74.08
35507;BME280;36461;52.018;21.036;2023-02-28T04:34:30;101847.30;;;-5.94;74.01
35507;BME280;36461;52.018;21.036;2023-02-28T04:36:59;101845.11;;;-5.97;74.32
35507;BME280;36461;52.018;21.036;2023-02-28T04:39:44;101841.91;;;-6.00;74.04
35507;BME280;36461;52.018;21.036;2023-02-28T04:42:12;101847.39;;;-6.01;74.13
35507;BME280;36461;52.018;21.036;2023-02-28T04:44:41;101845.97;;;-6.03;74.26
35507;BME280;36461;52.018;21.036;2023-02-28T04:47:09;101850.41;;;-6.04;74.33
35507;BME280;36461;52.018;21.036;2023-02-28T04:49:38;101846.41;;;-6.07;74.32
35507;BME280;36461;52.018;21.036;2023-02-28T04:52:06;101847.46;;;-6.09;74.59
35507;BME280;36461;52.018;21.036;2023-02-28T04:54:35;101849.26;;;-6.13;74.71
35507;BME280;36461;52.018;21.036;2023-02-28T04:57:04;101852.60;;;-6.16;74.66
35507;BME280;36461;52.018;21.036;2023-02-28T04:59:32;101861.09;;;-6.18;74.65
35507;BME280;36461;52.018;21.036;2023-02-28T05:02:00;101862.39;;;-6.21;74.82
35507;BME280;36461;52.018;21.036;2023-02-28T05:04:35;101865.56;;;-6.25;74.96
35507;BME280;36461;52.018;21.036;2023-02-28T05:07:04;101865.77;;;-6.27;74.97
35507;BME280;36461;52.018;21.036;2023-02-28T05:09:32;101867.81;;;-6.30;75.13
35507;BME280;36461;52.018;21.036;2023-02-28T05:12:01;101865.82;;;-6.32;75.25
35507;BME280;36461;52.018;21.036;2023-02-28T05:14:29;101868.66;;;-6.32;75.17
35507;BME280;36461;52.018;21.036;2023-02-28T05:16:57;101869.13;;;-6.33;75.25
35507;BME280;36461;52.018;21.036;2023-02-28T05:19:25;101869.63;;;-6.33;75.14
35507;BME280;36461;52.018;21.036;2023-02-28T05:21:54;101871.80;;;-6.33;75.05
35507;BME280;36461;52.018;21.036;2023-02-28T05:24:23;101870.31;;;-6.33;75.28
35507;BME280;36461;52.018;21.036;2023-02-28T05:26:53;101870.15;;;-6.33;75.41
35507;BME280;36461;52.018;21.036;2023-02-28T05:29:22;101873.84;;;-6.33;75.21
35507;BME280;36461;52.018;21.036;2023-02-28T05:31:50;101875.87;;;-6.33;75.35
35507;BME280;36461;52.018;21.036;2023-02-28T05:34:18;101875.02;;;-6.33;75.26
35507;BME280;36461;52.018;21.036;2023-02-28T05:36:46;101880.61;;;-6.32;75.44
35507;BME280;36461;52.018;21.036;2023-02-28T05:39:14;101878.36;;;-6.33;75.54
35507;BME280;36461;52.018;21.036;2023-02-28T05:41:43;101881.10;;;-6.33;75.40
35507;BME280;36461;52.018;21.036;2023-02-28T05:44:11;101882.45;;;-6.33;75.48
35507;BME280;36461;52.018;21.036;2023-02-28T05:46:40;101887.03;;;-6.29;75.62
35507;BME280;36461;52.018;21.036;2023-02-28T05:49:08;101886.52;;;-6.26;75.67
35507;BME280;36461;52.018;21.036;2023-02-28T05:51:37;101889.10;;;-6.26;75.56
35507;BME280;36461;52.018;21.036;2023-02-28T05:54:08;101892.39;;;-6.27;75.43
35507;BME280;36461;52.018;21.036;2023-02-28T05:56:36;101896.33;;;-6.26;75.67
35507;BME280;36461;52.018;21.036;2023-02-28T05:59:07;101894.58;;;-6.27;75.62
35507;BME280;36461;52.018;21.036;2023-02-28T06:01:42;101895.60;;;-6.27;75.81
35507;BME280;36461;52.018;21.036;2023-02-28T06:04:18;101896.02;;;-6.25;75.97
35507;BME280;36461;52.018;21.036;2023-02-28T06:06:58;101902.70;;;-6.24;75.84
35507;BME280;36461;52.018;21.036;2023-02-28T06:09:26;101901.95;;;-6.22;75.99
35507;BME280;36461;52.018;21.036;2023-02-28T06:12:01;101902.95;;;-6.19;76.12
35507;BME280;36461;52.018;21.036;2023-02-28T06:14:32;101902.88;;;-6.18;76.00
35507;BME280;36461;52.018;21.036;2023-02-28T06:17:02;101904.73;;;-6.15;76.10
35507;BME280;36461;52.018;21.036;2023-02-28T06:19:30;101907.48;;;-6.12;76.29
35507;BME280;36461;52.018;21.036;2023-02-28T06:21:58;101908.39;;;-6.10;76.31
35507;BME280;36461;52.018;21.036;2023-02-28T06:24:27;101905.23;;;-6.07;76.44
35507;BME280;36461;52.018;21.036;2023-02-28T06:26:56;101903.31;;;-6.02;76.45
35507;BME280;36461;52.018;21.036;2023-02-28T06:29:25;101901.73;;;-5.97;76.28
35507;BME280;36461;52.018;21.036;2023-02-28T06:31:53;101902.88;;;-5.92;76.62
35507;BME280;36461;52.018;21.036;2023-02-28T06:34:21;101904.86;;;-5.87;76.53
35507;BME280;36461;52.018;21.036;2023-02-28T06:36:51;101909.84;;;-5.82;76.80
35507;BME280;36461;52.018;21.036;2023-02-28T06:39:19;101908.21;;;-5.79;76.98
35507;BME280;36461;52.018;21.036;2023-02-28T06:41:47;101912.21;;;-5.74;77.12
35507;BME280;36461;52.018;21.036;2023-02-28T06:44:23;101909.77;;;-5.66;77.18
35507;BME280;36461;52.018;21.036;2023-02-28T06:46:51;101908.20;;;-5.58;77.27
35507;BME280;36461;52.018;21.036;2023-02-28T06:49:20;101909.66;;;-5.51;77.38
35507;BME280;36461;52.018;21.036;2023-02-28T06:51:48;101906.42;;;-5.42;77.65
35507;BME280;36461;52.018;21.036;2023-02-28T06:54:16;101905.03;;;-5.34;77.45
35507;BME280;36461;52.018;21.036;2023-02-28T06:56:44;101904.98;;;-5.27;77.68
35507;BME280;36461;52.018;21.036;2023-02-28T06:59:13;101902.13;;;-5.19;77.45
35507;BME280;36461;52.018;21.036;2023-02-28T07:01:41;101898.60;;;-5.13;77.66
35507;BME280;36461;52.018;21.036;2023-02-28T07:04:09;101899.87;;;-5.06;77.76
35507;BME280;36461;52.018;21.036;2023-02-28T07:06:37;101897.36;;;-4.99;77.99
35507;BME280;36461;52.018;21.036;2023-02-28T07:09:05;101894.67;;;-4.93;78.05
35507;BME280;36461;52.018;21.036;2023-02-28T07:11:33;101891.45;;;-4.87;78.14
35507;BME280;36461;52.018;21.036;2023-02-28T07:14:01;101890.98;;;-4.80;77.92
35507;BME280;36461;52.018;21.036;2023-02-28T07:16:30;101895.07;;;-4.73;78.04
35507;BME280;36461;52.018;21.036;2023-02-28T07:18:58;101894.69;;;-4.67;77.84
35507;BME280;36461;52.018;21.036;2023-02-28T07:21:26;101893.20;;;-4.61;77.93
35507;BME280;36461;52.018;21.036;2023-02-28T07:23:55;101891.20;;;-4.54;77.95
35507;BME280;36461;52.018;21.036;2023-02-28T07:26:24;101888.73;;;-4.46;77.66
35507;BME280;36461;52.018;21.036;2023-02-28T07:28:52;101892.06;;;-4.37;77.47
35507;BME280;36461;52.018;21.036;2023-02-28T07:31:20;101889.65;;;-4.29;77.44
35507;BME280;36461;52.018;21.036;2023-02-28T07:33:49;101890.42;;;-4.20;77.50
35507;BME280;36461;52.018;21.036;2023-02-28T07:36:17;101892.89;;;-4.12;77.24
35507;BME280;36461;52.018;21.036;2023-02-28T07:38:47;101897.27;;;-4.02;77.06
35507;BME280;36461;52.018;21.036;2023-02-28T07:41:19;101899.02;;;-3.92;76.91
35507;BME280;36461;52.018;21.036;2023-02-28T07:43:48;101898.92;;;-3.80;76.72
35507;BME280;36461;52.018;21.036;2023-02-28T07:46:17;101898.27;;;-3.69;76.84
35507;BME280;36461;52.018;21.036;2023-02-28T07:48:46;101899.77;;;-3.60;76.97
35507;BME280;36461;52.018;21.036;2023-02-28T07:51:14;101897.39;;;-3.49;76.86
35507;BME280;36461;52.018;21.036;2023-02-28T07:53:42;101893.31;;;-3.39;75.96
35507;BME280;36461;52.018;21.036;2023-02-28T07:56:10;101892.09;;;-3.26;75.62
35507;BME280;36461;52.018;21.036;2023-02-28T07:58:38;101894.00;;;-3.15;75.41
35507;BME280;36461;52.018;21.036;2023-02-28T08:01:08;101896.77;;;-3.06;75.79
35507;BME280;36461;52.018;21.036;2023-02-28T08:03:38;101893.94;;;-2.98;75.92
35507;BME280;36461;52.018;21.036;2023-02-28T08:06:08;101897.52;;;-2.91;75.47
35507;BME280;36461;52.018;21.036;2023-02-28T08:08:36;101897.02;;;-2.83;75.09
35507;BME280;36461;52.018;21.036;2023-02-28T08:11:04;101890.27;;;-2.75;74.99
35507;BME280;36461;52.018;21.036;2023-02-28T08:13:33;101887.45;;;-2.70;74.86
35507;BME280;36461;52.018;21.036;2023-02-28T08:16:01;101889.05;;;-2.65;74.55
35507;BME280;36461;52.018;21.036;2023-02-28T08:18:32;101885.14;;;-2.58;74.18
35507;BME280;36461;52.018;21.036;2023-02-28T08:21:09;101883.15;;;-2.49;73.56
35507;BME280;36461;52.018;21.036;2023-02-28T08:23:37;101882.58;;;-2.39;73.17
35507;BME280;36461;52.018;21.036;2023-02-28T08:26:06;101881.34;;;-2.32;73.58
35507;BME280;36461;52.018;21.036;2023-02-28T08:28:34;101881.97;;;-2.26;73.55
35507;BME280;36461;52.018;21.036;2023-02-28T08:31:07;101886.08;;;-2.21;73.28
35507;BME280;36461;52.018;21.036;2023-02-28T08:33:36;101885.80;;;-2.16;72.21
35507;BME280;36461;52.018;21.036;2023-02-28T08:36:07;101885.00;;;-2.11;72.00
35507;BME280;36461;52.018;21.036;2023-02-28T08:38:36;101884.67;;;-2.03;71.94
35507;BME280;36461;52.018;21.036;2023-02-28T08:41:09;101882.86;;;-1.98;71.44
35507;BME280;36461;52.018;21.036;2023-02-28T08:43:39;101880.30;;;-1.94;71.10
35507;BME280;36461;52.018;21.036;2023-02-28T08:46:07;101877.52;;;-1.88;71.09
35507;BME280;36461;52.018;21.036;2023-02-28T08:48:39;101875.18;;;-1.83;70.93
35507;BME280;36461;52.018;21.036;2023-02-28T08:51:17;101877.42;;;-1.78;70.50
35507;BME280;36461;52.018;21.036;2023-02-28T08:53:49;101877.02;;;-1.72;70.18
35507;BME280;36461;52.018;21.036;2023-02-28T08:56:17;101876.08;;;-1.66;70.12
35507;BME280;36461;52.018;21.036;2023-02-28T08:58:47;101876.02;;;-1.59;70.11
35507;BME280;36461;52.018;21.036;2023-02-28T09:01:20;101873.95;;;-1.51;70.23
35507;BME280;36461;52.018;21.036;2023-02-28T09:03:51;101870.83;;;-1.44;69.71
35507;BME280;36461;52.018;21.036;2023-02-28T09:06:21;101877.19;;;-1.38;69.22
35507;BME280;36461;52.018;21.036;2023-02-28T09:08:49;101880.00;;;-1.31;68.94
35507;BME280;36461;52.018;21.036;2023-02-28T09:11:18;101880.09;;;-1.26;68.64
35507;BME280;36461;52.018;21.036;2023-02-28T09:13:46;101879.63;;;-1.20;68.51
35507;BME280;36461;52.018;21.036;2023-02-28T09:16:16;101882.39;;;-1.14;68.47
35507;BME280;36461;52.018;21.036;2023-02-28T09:18:44;101886.14;;;-1.10;67.96
35507;BME280;36461;52.018;21.036;2023-02-28T09:21:18;101887.36;;;-1.05;67.74
35507;BME280;36461;52.018;21.036;2023-02-28T09:23:48;101891.36;;;-0.98;67.87
35507;BME280;36461;52.018;21.036;2023-02-28T09:26:26;101895.14;;;-0.93;67.73
35507;BME280;36461;52.018;21.036;2023-02-28T09:29:09;101892.13;;;-0.82;67.44
35507;BME280;36461;52.018;21.036;2023-02-28T09:31:37;101891.16;;;-0.77;67.17
35507;BME280;36461;52.018;21.036;2023-02-28T09:34:05;101893.13;;;-0.70;67.40
35507;BME280;36461;52.018;21.036;2023-02-28T09:36:35;101896.96;;;-0.63;67.16
35507;BME280;36461;52.018;21.036;2023-02-28T09:39:12;101893.79;;;-0.57;66.62
35507;BME280;36461;52.018;21.036;2023-02-28T09:41:45;101892.77;;;-0.52;66.22
35507;BME280;36461;52.018;21.036;2023-02-28T09:44:35;101894.96;;;-0.44;66.37
35507;BME280;36461;52.018;21.036;2023-02-28T09:47:39;101895.17;;;-0.34;65.73
35507;BME280;36461;52.018;21.036;2023-02-28T09:52:55;101892.67;;;-0.18;65.44
35507;BME280;36461;52.018;21.036;2023-02-28T09:55:30;101893.68;;;-0.09;65.28
35507;BME280;36461;52.018;21.036;2023-02-28T09:58:28;101891.60;;;-0.05;64.64
35507;BME280;36461;52.018;21.036;2023-02-28T10:04:44;101889.79;;;-0.03;64.18
35507;BME280;36461;52.018;21.036;2023-02-28T10:06:53;101891.77;;;-0.01;64.04
35507;BME280;36461;52.018;21.036;2023-02-28T10:09:25;101896.65;;;0.03;63.97
35507;BME280;36461;52.018;21.036;2023-02-28T10:12:00;101892.52;;;0.07;63.70
35507;BME280;36461;52.018;21.036;2023-02-28T10:14:32;101889.23;;;0.10;63.62
35507;BME280;36461;52.018;21.036;2023-02-28T10:17:05;101883.45;;;0.15;63.07
35507;BME280;36461;52.018;21.036;2023-02-28T10:24:52;101883.72;;;0.23;63.02
35507;BME280;36461;52.018;21.036;2023-02-28T10:27:23;101887.45;;;0.27;62.80
35507;BME280;36461;52.018;21.036;2023-02-28T10:29:59;101887.05;;;0.30;62.39
35507;BME280;36461;52.018;21.036;2023-02-28T10:32:34;101887.23;;;0.31;62.06
35507;BME280;36461;52.018;21.036;2023-02-28T10:35:26;101887.14;;;0.33;62.29
35507;BME280;36461;52.018;21.036;2023-02-28T10:37:59;101882.88;;;0.39;62.05
35507;BME280;36461;52.018;21.036;2023-02-28T10:40:34;101880.65;;;0.43;61.98
35507;BME280;36461;52.018;21.036;2023-02-28T10:43:19;101882.69;;;0.48;62.01
35507;BME280;36461;52.018;21.036;2023-02-28T10:46:04;101877.95;;;0.54;61.87
35507;BME280;36461;52.018;21.036;2023-02-28T10:48:45;101874.23;;;0.60;61.46
35507;BME280;36461;52.018;21.036;2023-02-28T10:51:19;101875.49;;;0.62;61.16
35507;BME280;36461;52.018;21.036;2023-02-28T10:53:54;101872.89;;;0.66;61.11
35507;BME280;36461;52.018;21.036;2023-02-28T10:56:30;101874.55;;;0.70;60.90
35507;BME280;36461;52.018;21.036;2023-02-28T10:59:29;101867.31;;;0.73;60.96
35507;BME280;36461;52.018;21.036;2023-02-28T11:01:57;101866.27;;;0.77;60.97
35507;BME280;36461;52.018;21.036;2023-02-28T11:07:18;101870.30;;;0.87;60.23
35507;BME280;36461;52.018;21.036;2023-02-28T11:09:52;101866.56;;;0.87;60.42
35507;BME280;36461;52.018;21.036;2023-02-28T11:12:37;101865.05;;;0.88;60.25
35507;BME280;36461;52.018;21.036;2023-02-28T11:15:25;101862.42;;;0.91;59.97
35507;BME280;36461;52.018;21.036;2023-02-28T11:20:33;101854.21;;;1.01;59.73
35507;BME280;36461;52.018;21.036;2023-02-28T11:23:04;101858.27;;;1.05;59.79
35507;BME280;36461;52.018;21.036;2023-02-28T11:25:35;101849.80;;;1.07;59.59
35507;BME280;36461;52.018;21.036;2023-02-28T11:28:08;101848.83;;;1.09;59.33
35507;BME280;36461;52.018;21.036;2023-02-28T11:36:15;101830.08;;;1.20;59.22
35507;BME280;36461;52.018;21.036;2023-02-28T11:38:47;101827.62;;;1.24;59.10
35507;BME280;36461;52.018;21.036;2023-02-28T11:44:38;101826.15;;;1.32;58.98
35507;BME280;36461;52.018;21.036;2023-02-28T11:47:38;101823.69;;;1.35;58.81
35507;BME280;36461;52.018;21.036;2023-02-28T11:52:55;101813.04;;;1.45;58.31
35507;BME280;36461;52.018;21.036;2023-02-28T12:01:53;101792.18;;;1.56;58.40
35507;BME280;36461;52.018;21.036;2023-02-28T12:04:37;101789.38;;;1.60;58.05
35507;BME280;36461;52.018;21.036;2023-02-28T12:07:18;101786.89;;;1.61;57.80
35507;BME280;36461;52.018;21.036;2023-02-28T12:12:37;101779.56;;;1.62;57.33
35507;BME280;36461;52.018;21.036;2023-02-28T12:29:29;101767.66;;;1.76;57.49
35507;BME280;36461;52.018;21.036;2023-02-28T12:32:04;101763.27;;;1.79;57.11
35507;BME280;36461;52.018;21.036;2023-02-28T12:34:38;101756.02;;;1.82;57.41
35507;BME280;36461;52.018;21.036;2023-02-28T12:37:14;101754.40;;;1.85;56.90
35507;BME280;36461;52.018;21.036;2023-02-28T12:39:47;101753.89;;;1.85;56.98
35507;BME280;36461;52.018;21.036;2023-02-28T12:42:25;101754.42;;;1.87;56.53
35507;BME280;36461;52.018;21.036;2023-02-28T12:45:03;101747.98;;;1.89;56.62
35507;BME280;36461;52.018;21.036;2023-02-28T12:47:38;101746.36;;;1.91;56.71
35507;BME280;36461;52.018;21.036;2023-02-28T12:50:11;101744.83;;;1.92;56.32
35507;BME280;36461;52.018;21.036;2023-02-28T12:55:54;101737.23;;;1.95;56.23
35507;BME280;36461;52.018;21.036;2023-02-28T12:58:39;101740.85;;;1.97;56.19
35507;BME280;36461;52.018;21.036;2023-02-28T13:01:33;101738.08;;;2.01;56.30
35507;BME280;36461;52.018;21.036;2023-02-28T13:09:31;101734.58;;;2.12;56.38
35507;BME280;36461;52.018;21.036;2023-02-28T13:12:00;101735.66;;;2.15;56.21
35507;BME280;36461;52.018;21.036;2023-02-28T13:24:55;101730.04;;;2.23;55.89
35507;BME280;36461;52.018;21.036;2023-02-28T13:29:53;101725.27;;;2.23;55.90
35507;BME280;36461;52.018;21.036;2023-02-28T13:32:39;101718.90;;;2.21;55.15
35507;BME280;36461;52.018;21.036;2023-02-28T13:37:42;101715.10;;;2.19;55.47
35507;BME280;36461;52.018;21.036;2023-02-28T13:42:49;101717.77;;;2.24;55.62
35507;BME280;36461;52.018;21.036;2023-02-28T13:45:28;101711.48;;;2.25;55.65
35507;BME280;36461;52.018;21.036;2023-02-28T13:48:03;101713.48;;;2.24;55.18
35507;BME280;36461;52.018;21.036;2023-02-28T13:50:36;101713.14;;;2.23;55.52
35507;BME280;36461;52.018;21.036;2023-02-28T14:04:46;101693.14;;;2.22;54.94
35507;BME280;36461;52.018;21.036;2023-02-28T14:07:27;101687.30;;;2.21;54.90
35507;BME280;36461;52.018;21.036;2023-02-28T14:10:02;101683.52;;;2.20;55.64
35507;BME280;36461;52.018;21.036;2023-02-28T14:12:53;101680.58;;;2.18;55.47
35507;BME280;36461;52.018;21.036;2023-02-28T14:18:03;101672.77;;;2.13;55.85
35507;BME280;36461;52.018;21.036;2023-02-28T14:20:33;101671.94;;;2.14;55.45
35507;BME280;36461;52.018;21.036;2023-02-28T14:23:10;101669.19;;;2.12;55.53
35507;BME280;36461;52.018;21.036;2023-02-28T14:25:47;101664.89;;;2.12;55.12
35507;BME280;36461;52.018;21.036;2023-02-28T14:31:13;101666.17;;;2.09;55.55
35507;BME280;36461;52.018;21.036;2023-02-28T14:36:53;101661.33;;;2.06;55.47
35507;BME280;36461;52.018;21.036;2023-02-28T14:39:24;101659.42;;;2.04;55.44
35507;BME280;36461;52.018;21.036;2023-02-28T14:41:53;101661.60;;;2.02;55.38
35507;BME280;36461;52.018;21.036;2023-02-28T14:44:27;101664.08;;;1.99;55.45
35507;BME280;36461;52.018;21.036;2023-02-28T14:47:00;101666.59;;;1.97;55.60
35507;BME280;36461;52.018;21.036;2023-02-28T14:49:36;101665.34;;;1.94;55.63
35507;BME280;36461;52.018;21.036;2023-02-28T14:52:14;101660.13;;;1.91;55.78
35507;BME280;36461;52.018;21.036;2023-02-28T14:54:43;101654.10;;;1.89;55.56
35507;BME280;36461;52.018;21.036;2023-02-28T15:00:04;101658.02;;;1.81;55.65
35507;BME280;36461;52.018;21.036;2023-02-28T15:02:39;101655.71;;;1.78;55.69
35507;BME280;36461;52.018;21.036;2023-02-28T15:07:47;101657.83;;;1.73;55.66
35507;BME280;36461;52.018;21.036;2023-02-28T15:12:52;101652.55;;;1.66;55.82
35507;BME280;36461;52.018;21.036;2023-02-28T15:15:22;101655.34;;;1.62;55.71
35507;BME280;36461;52.018;21.036;2023-02-28T15:18:10;101656.27;;;1.59;55.59
35507;BME280;36461;52.018;21.036;2023-02-28T15:20:43;101656.67;;;1.55;55.91
35507;BME280;36461;52.018;21.036;2023-02-28T15:23:12;101655.91;;;1.51;55.87